Time;durP1;ratioP1;P1;durP2;ratioP2;P2;SDS_P1;SDS_P2;PMS_P1;PMS_P2;Temp;Humidity;BMP_temperature;BMP_pressure;BME280_temperature;BME280_humidity;BME280_pressure;Samples;Min_cycle;Max_cycle;Signal;HPM_P1;HPM_P2
2022/11/07 00:02:07;;;;;;;1.80;1.20;;;14.30;42.50;;;;;;5031748;28;20435;-76
2022/11/07 00:04:33;;;;;;;1.80;1.20;;;14.00;43.20;;;;;;5021005;28;20451;-76
2022/11/07 00:06:59;;;;;;;1.80;1.20;;;14.30;44.60;;;;;;5014572;28;20432;-76
2022/11/07 00:09:25;;;;;;;1.90;1.30;;;14.40;43.40;;;;;;5015083;28;20500;-76
2022/11/07 00:11:51;;;;;;;1.70;1.17;;;14.60;41.70;;;;;;5012972;28;20435;-76
2022/11/07 00:14:17;;;;;;;1.70;1.10;;;14.30;42.60;;;;;;5013129;28;20201;-76
2022/11/07 00:16:44;;;;;;;1.80;1.10;;;14.40;42.20;;;;;;5014585;28;20214;-75
2022/11/07 00:19:10;;;;;;;1.90;1.20;;;14.50;42.50;;;;;;5022882;28;20245;-76
2022/11/07 00:21:37;;;;;;;2.00;1.43;;;14.30;43.60;;;;;;5030658;28;20959;-77
2022/11/07 00:24:03;;;;;;;1.80;1.20;;;14.50;42.20;;;;;;5014155;28;20447;-75
2022/11/07 00:26:28;;;;;;;1.80;1.10;;;14.80;41.60;;;;;;5015028;28;20413;-77
2022/11/07 00:28:55;;;;;;;1.80;1.27;;;15.10;40.50;;;;;;5021070;28;20550;-76
2022/11/07 00:31:20;;;;;;;2.10;1.33;;;14.70;41.50;;;;;;5025564;28;20784;-74
2022/11/07 00:33:46;;;;;;;1.90;1.40;;;14.90;41.50;;;;;;5014129;28;20442;-76
2022/11/07 00:36:26;;;;;;;1.80;1.20;;;14.90;40.80;;;;;;5014851;28;20222;-76
2022/11/07 00:38:52;;;;;;;2.00;1.30;;;14.80;41.30;;;;;;5013797;28;20790;-76
2022/11/07 00:41:18;;;;;;;1.80;1.13;;;15.00;41.40;;;;;;5024709;28;20425;-76
2022/11/07 00:43:44;;;;;;;1.90;1.20;;;14.60;42.40;;;;;;5019195;28;20460;-75
2022/11/07 00:46:12;;;;;;;2.20;1.50;;;14.60;42.30;;;;;;5013916;28;20209;-76
2022/11/07 00:48:38;;;;;;;4.97;1.73;;;14.30;43.40;;;;;;5013120;28;20432;-72
2022/11/07 00:51:09;;;;;;;1.90;1.23;;;14.40;45.30;;;;;;5012606;28;20528;-76
2022/11/07 00:53:35;;;;;;;1.90;1.30;;;14.00;44.70;;;;;;5013456;28;20300;-76
2022/11/07 00:56:06;;;;;;;1.80;1.20;;;14.60;44.10;;;;;;5013937;28;20437;-76
2022/11/07 00:58:33;;;;;;;1.90;1.30;;;14.90;42.20;;;;;;5013505;28;20515;-76
2022/11/07 01:00:59;;;;;;;1.87;1.30;;;15.40;43.90;;;;;;5020932;28;20458;-77
2022/11/07 01:06:10;;;;;;;1.90;1.33;;;15.20;41.90;;;;;;5013581;28;20803;-76
2022/11/07 01:08:36;;;;;;;1.90;1.30;;;15.50;42.30;;;;;;5013383;28;20494;-77
2022/11/07 01:11:06;;;;;;;1.80;1.20;;;15.20;41.20;;;;;;5013030;28;20523;-77
2022/11/07 01:13:32;;;;;;;1.70;1.10;;;15.20;41.30;;;;;;5015407;28;20465;-77
2022/11/07 01:15:58;;;;;;;1.70;1.10;;;15.20;41.60;;;;;;5013905;28;20414;-76
2022/11/07 01:18:23;;;;;;;1.70;1.00;;;15.00;41.60;;;;;;5012905;28;20829;-77
2022/11/07 01:20:49;;;;;;;2.00;1.33;;;14.90;42.00;;;;;;5012130;28;20178;-77
2022/11/07 01:23:15;;;;;;;3.33;1.50;;;14.80;42.30;;;;;;5011498;28;20203;-77
2022/11/07 01:25:41;;;;;;;2.10;1.23;;;14.60;43.00;;;;;;5018349;28;20254;-77
2022/11/07 01:28:07;;;;;;;1.77;1.10;;;14.50;43.70;;;;;;5016545;28;20912;-76
2022/11/07 01:30:37;;;;;;;1.80;1.13;;;14.60;43.80;;;;;;5013180;28;20687;-77
2022/11/07 01:33:03;;;;;;;1.90;1.20;;;14.70;44.00;;;;;;5011868;28;20981;-76
2022/11/07 01:35:28;;;;;;;1.80;1.20;;;14.90;44.00;;;;;;5016057;28;20522;-76
2022/11/07 01:37:54;;;;;;;1.80;1.10;;;14.90;43.80;;;;;;5017949;28;20270;-77
2022/11/07 01:40:19;;;;;;;2.00;1.30;;;15.00;44.40;;;;;;5011114;28;20185;-77
2022/11/07 01:42:45;;;;;;;1.80;1.10;;;14.70;44.10;;;;;;5012210;28;20184;-76
2022/11/07 01:45:29;;;;;;;1.93;1.23;;;14.30;43.90;;;;;;5021434;28;20181;-77
2022/11/07 01:47:59;;;;;;;1.90;1.20;;;14.30;43.80;;;;;;5013344;28;20173;-77
2022/11/07 01:50:26;;;;;;;1.80;1.20;;;14.20;44.30;;;;;;5013554;28;20515;-77
2022/11/07 01:52:54;;;;;;;1.80;1.20;;;14.40;44.60;;;;;;5010059;28;20460;-77
2022/11/07 01:55:25;;;;;;;1.80;1.20;;;14.30;44.00;;;;;;5011131;28;20435;-76
2022/11/07 01:57:58;;;;;;;1.80;1.30;;;14.20;44.30;;;;;;5019427;28;21172;-77
2022/11/07 02:00:24;;;;;;;1.80;1.10;;;14.30;43.90;;;;;;5032900;28;20404;-77
2022/11/07 02:02:56;;;;;;;1.77;1.10;;;14.30;44.80;;;;;;5020887;28;20550;-76
2022/11/07 02:05:33;;;;;;;2.77;1.40;;;14.10;44.10;;;;;;5011334;28;20427;-77
2022/11/07 02:08:00;;;;;;;1.90;1.30;;;14.00;44.50;;;;;;5012885;28;20407;-77
2022/11/07 02:10:26;;;;;;;1.80;1.10;;;14.10;43.60;;;;;;5013152;28;20412;-77
2022/11/07 02:12:56;;;;;;;1.80;1.17;;;13.90;44.20;;;;;;5009946;28;20452;-77
2022/11/07 02:15:22;;;;;;;1.80;1.10;;;13.80;44.40;;;;;;5011457;28;20435;-76
2022/11/07 02:17:48;;;;;;;1.77;1.10;;;13.90;44.90;;;;;;5020645;28;20444;-76
2022/11/07 02:20:14;;;;;;;1.90;1.20;;;13.60;45.10;;;;;;5013091;28;20668;-77
2022/11/07 02:22:45;;;;;;;1.90;1.20;;;13.60;45.30;;;;;;5023246;28;20447;-77
2022/11/07 02:25:14;;;;;;;1.80;1.13;;;13.70;45.30;;;;;;5013773;28;20428;-77
2022/11/07 02:27:41;;;;;;;1.80;1.10;;;14.00;45.80;;;;;;5011860;28;20965;-75
2022/11/07 02:30:12;;;;;;;1.90;1.20;;;13.60;44.60;;;;;;5010609;28;20526;-77
2022/11/07 02:32:37;;;;;;;2.00;1.37;;;13.70;44.30;;;;;;5017099;28;20435;-77
2022/11/07 02:35:28;;;;;;;1.90;1.20;;;13.80;45.00;;;;;;5032349;28;20506;-77
2022/11/07 02:37:54;;;;;;;1.70;1.10;;;13.70;45.20;;;;;;5030940;28;20203;-77
2022/11/07 02:40:20;;;;;;;1.90;1.27;;;14.00;45.20;;;;;;5019044;28;21114;-77
2022/11/07 02:42:46;;;;;;;1.90;1.20;;;13.80;45.30;;;;;;5012079;28;20417;-75
2022/11/07 02:45:16;;;;;;;1.80;1.10;;;13.60;45.90;;;;;;5012136;28;20492;-76
2022/11/07 02:47:42;;;;;;;1.77;1.10;;;13.60;46.90;;;;;;5012754;28;20418;-77
2022/11/07 02:50:09;;;;;;;1.80;1.20;;;13.90;46.70;;;;;;5026147;28;21164;-77
2022/11/07 02:52:35;;;;;;;1.80;1.10;;;13.80;46.90;;;;;;5010384;28;20523;-77
2022/11/07 02:55:01;;;;;;;1.80;1.20;;;13.90;46.00;;;;;;5011142;28;20510;-77
2022/11/07 02:57:27;;;;;;;1.80;1.20;;;14.00;45.60;;;;;;5012315;28;20503;-76
2022/11/07 02:59:52;;;;;;;1.80;1.20;;;14.00;46.70;;;;;;5012399;28;20412;-76
2022/11/07 03:02:18;;;;;;;1.97;1.30;;;14.00;46.00;;;;;;5009321;28;20212;-76
2022/11/07 03:04:43;;;;;;;2.20;1.50;;;13.90;46.80;;;;;;5010582;28;20263;-75
2022/11/07 03:07:09;;;;;;;1.80;1.20;;;13.90;46.90;;;;;;5011784;28;20199;-76
2022/11/07 03:09:35;;;;;;;1.90;1.30;;;13.90;46.70;;;;;;5012152;28;20177;-76
2022/11/07 03:12:00;;;;;;;1.87;1.20;;;14.10;46.50;;;;;;5009968;28;20560;-76
2022/11/07 03:14:26;;;;;;;1.80;1.10;;;14.10;46.30;;;;;;5010653;28;20201;-75
2022/11/07 03:16:51;;;;;;;1.83;1.20;;;14.20;46.60;;;;;;5011665;28;20223;-76
2022/11/07 03:19:17;;;;;;;1.80;1.20;;;14.20;45.80;;;;;;5011655;28;20197;-75
2022/11/07 03:21:43;;;;;;;1.70;1.10;;;14.40;45.90;;;;;;5010115;28;20649;-75
2022/11/07 03:24:08;;;;;;;1.90;1.20;;;14.30;45.50;;;;;;5009616;28;20452;-77
2022/11/07 03:26:34;;;;;;;1.80;1.20;;;14.30;45.90;;;;;;5011812;28;20174;-78
2022/11/07 03:29:00;;;;;;;1.80;1.20;;;14.30;45.80;;;;;;5006876;28;20212;-77
2022/11/07 03:31:25;;;;;;;1.90;1.20;;;14.30;45.80;;;;;;5013882;28;20660;-76
2022/11/07 03:33:51;;;;;;;2.00;1.40;;;14.50;45.40;;;;;;5015374;28;20208;-75
2022/11/07 03:36:17;;;;;;;1.80;1.10;;;14.50;44.50;;;;;;5011680;28;20184;-76
2022/11/07 03:38:42;;;;;;;1.83;1.23;;;14.60;43.90;;;;;;5010325;28;20678;-76
2022/11/07 03:41:08;;;;;;;1.80;1.10;;;14.50;43.60;;;;;;5010615;28;20189;-76
2022/11/07 03:43:33;;;;;;;1.87;1.20;;;14.30;45.20;;;;;;5010434;28;20194;-75
2022/11/07 03:45:59;;;;;;;3.03;1.83;;;14.20;45.50;;;;;;5011533;28;20608;-77
2022/11/07 03:48:24;;;;;;;1.70;1.10;;;14.40;46.00;;;;;;5011438;28;20299;-76
2022/11/07 03:50:50;;;;;;;1.80;1.20;;;14.40;45.40;;;;;;5012044;28;20174;-76
2022/11/07 03:53:16;;;;;;;1.80;1.13;;;14.50;46.30;;;;;;5009586;28;20719;-76
2022/11/07 03:55:42;;;;;;;1.80;1.17;;;14.40;45.70;;;;;;5030493;23;20551;-75
2022/11/07 03:58:08;;;;;;;1.70;1.07;;;14.20;45.00;;;;;;4994249;28;20193;-72
2022/11/07 04:00:33;;;;;;;1.80;1.10;;;14.30;46.20;;;;;;4996619;28;20437;-73
2022/11/07 04:02:59;;;;;;;1.80;1.20;;;14.40;45.00;;;;;;5004222;28;20178;-72
2022/11/07 04:05:25;;;;;;;1.80;1.27;;;14.30;44.90;;;;;;5018192;28;20208;-72
2022/11/07 04:07:51;;;;;;;1.80;1.20;;;14.30;45.50;;;;;;5002662;28;20907;-73
2022/11/07 04:10:16;;;;;;;1.90;1.27;;;14.50;44.50;;;;;;4991954;28;20536;-73
2022/11/07 04:18:11;;;;;;;1.90;1.20;;;14.70;43.80;;;;;;4990246;28;20573;-72
2022/11/07 04:20:37;;;;;;;1.97;1.30;;;14.70;44.70;;;;;;4991737;28;20520;-72
2022/11/07 04:23:02;;;;;;;1.80;1.20;;;14.80;44.40;;;;;;4991544;28;20607;-72
2022/11/07 04:28:15;;;;;;;1.90;1.30;;;15.10;43.10;;;;;;4996515;28;20241;-74
2022/11/07 04:30:40;;;;;;;1.80;1.20;;;15.20;43.00;;;;;;4995274;28;20430;-73
2022/11/07 04:33:06;;;;;;;1.80;1.20;;;14.70;43.10;;;;;;4995063;28;20927;-74
2022/11/07 04:35:33;;;;;;;1.80;1.17;;;14.80;43.10;;;;;;4998517;28;20264;-74
2022/11/07 04:37:59;;;;;;;3.07;1.53;;;15.00;41.90;;;;;;5000447;28;20227;-73
2022/11/07 04:40:26;;;;;;;1.97;1.20;;;14.90;41.90;;;;;;4994986;28;20414;-73
2022/11/07 04:42:52;;;;;;;1.70;1.20;;;14.80;42.50;;;;;;4993952;28;20990;-73
2022/11/07 04:45:18;;;;;;;2.00;1.30;;;14.90;42.20;;;;;;4994000;28;20445;-73
2022/11/07 04:47:44;;;;;;;1.80;1.13;;;14.80;42.00;;;;;;4995154;28;20529;-73
2022/11/07 04:50:13;;;;;;;1.70;1.10;;;14.80;42.30;;;;;;4992835;28;20183;-74
2022/11/07 04:52:39;;;;;;;1.77;1.10;;;14.90;43.00;;;;;;4992764;28;20940;-74
2022/11/07 04:55:08;;;;;;;1.80;1.10;;;14.80;42.00;;;;;;4993848;28;20513;-73
2022/11/07 04:57:33;;;;;;;3.03;1.60;;;14.90;41.80;;;;;;4993396;28;20778;-73
2022/11/07 04:59:59;;;;;;;2.00;1.40;;;14.70;42.20;;;;;;4992748;28;20546;-73
2022/11/07 05:02:25;;;;;;;1.90;1.20;;;14.70;42.50;;;;;;4993998;28;20192;-73
2022/11/07 05:04:51;;;;;;;1.80;1.20;;;14.70;42.20;;;;;;4994227;28;20187;-73
2022/11/07 05:07:18;;;;;;;1.80;1.20;;;14.60;42.80;;;;;;4996105;28;20835;-73
2022/11/07 05:09:43;;;;;;;1.90;1.30;;;14.70;43.00;;;;;;5003000;28;20432;-73
2022/11/07 05:12:09;;;;;;;1.80;1.27;;;14.80;43.00;;;;;;4993557;28;20444;-73
2022/11/07 05:14:35;;;;;;;2.30;1.63;;;14.80;42.60;;;;;;4993889;28;20186;-73
2022/11/07 05:17:02;;;;;;;1.80;1.20;;;14.50;42.00;;;;;;4994435;28;20185;-73
2022/11/07 05:19:27;;;;;;;1.80;1.20;;;14.60;42.90;;;;;;5002044;28;20270;-73
2022/11/07 05:24:37;;;;;;;1.80;1.20;;;14.50;42.40;;;;;;4993673;28;20656;-73
2022/11/07 05:27:03;;;;;;;2.30;1.40;;;14.80;43.20;;;;;;4994050;28;20422;-73
2022/11/07 05:29:29;;;;;;;1.80;1.23;;;14.90;42.90;;;;;;4994109;28;20445;-73
2022/11/07 05:31:54;;;;;;;2.63;1.80;;;14.50;42.10;;;;;;4993077;28;20811;-73
2022/11/07 05:34:20;;;;;;;1.70;1.10;;;14.40;42.70;;;;;;4995078;28;20177;-74
2022/11/07 05:36:46;;;;;;;1.80;1.20;;;14.60;43.20;;;;;;4994981;28;20555;-73
2022/11/07 05:39:11;;;;;;;1.80;1.20;;;14.70;42.80;;;;;;4994105;28;20206;-73
2022/11/07 05:41:37;;;;;;;1.80;1.30;;;14.70;42.50;;;;;;4992952;28;20181;-73
2022/11/07 05:44:02;;;;;;;4.37;2.13;;;14.80;41.60;;;;;;4991540;28;20719;-73
2022/11/07 05:46:28;;;;;;;1.90;1.20;;;14.80;42.30;;;;;;4992890;28;20198;-73
2022/11/07 05:48:54;;;;;;;1.70;1.10;;;14.70;41.70;;;;;;4993821;28;20191;-73
2022/11/07 05:51:20;;;;;;;2.00;1.30;;;14.60;43.20;;;;;;4993168;28;20758;-73
2022/11/07 05:53:45;;;;;;;1.80;1.20;;;14.80;42.40;;;;;;4990401;28;20194;-73
2022/11/07 05:56:12;;;;;;;1.83;1.20;;;14.70;41.70;;;;;;4991212;28;20726;-73
2022/11/07 05:58:38;;;;;;;1.80;1.20;;;15.00;42.00;;;;;;4991458;28;20527;-73
2022/11/07 06:01:05;;;;;;;2.17;1.40;;;15.00;41.80;;;;;;4990280;28;20572;-73
2022/11/07 06:03:31;;;;;;;1.80;1.20;;;14.90;42.10;;;;;;4988817;28;20186;-73
2022/11/07 06:05:57;;;;;;;1.80;1.10;;;15.00;42.70;;;;;;4991001;28;20873;-73
2022/11/07 06:08:22;;;;;;;1.80;1.20;;;15.00;43.00;;;;;;4992214;28;20476;-73
2022/11/07 06:10:48;;;;;;;1.90;1.20;;;15.00;42.50;;;;;;4990970;28;20222;-73
2022/11/07 06:13:15;;;;;;;2.20;1.40;;;14.90;42.70;;;;;;4989423;28;20194;-73
2022/11/07 06:15:43;;;;;;;1.80;1.20;;;14.80;43.40;;;;;;4999054;28;20678;-73
2022/11/07 06:18:18;;;;;;;1.80;1.20;;;14.60;43.70;;;;;;4989095;28;20466;-73
2022/11/07 06:20:45;;;;;;;2.27;1.47;;;14.70;43.30;;;;;;4987959;28;20503;-74
2022/11/07 06:23:11;;;;;;;1.90;1.30;;;14.60;43.00;;;;;;4974443;28;20488;-73
2022/11/07 06:25:37;;;;;;;2.53;1.53;;;14.60;42.80;;;;;;4987340;28;20977;-73
2022/11/07 06:28:05;;;;;;;1.80;1.27;;;14.90;43.70;;;;;;4988726;28;20442;-73
2022/11/07 06:30:31;;;;;;;1.80;1.23;;;14.90;43.40;;;;;;4989648;28;20446;-73
2022/11/07 06:33:05;;;;;;;1.80;1.20;;;15.00;42.30;;;;;;4989150;28;20446;-73
2022/11/07 06:35:31;;;;;;;1.93;1.40;;;15.20;41.90;;;;;;4988315;28;20470;-73
2022/11/07 06:38:03;;;;;;;1.77;1.20;;;15.10;42.70;;;;;;4989770;28;20846;-74
2022/11/07 06:40:29;;;;;;;1.80;1.20;;;15.10;42.10;;;;;;4988940;28;20526;-74
2022/11/07 06:42:55;;;;;;;1.83;1.23;;;15.20;41.90;;;;;;4990156;28;20458;-74
2022/11/07 06:45:21;;;;;;;1.90;1.30;;;15.30;40.60;;;;;;4990788;28;20452;-74
2022/11/07 06:47:46;;;;;;;1.80;1.20;;;15.40;41.40;;;;;;4987863;28;20178;-73
2022/11/07 06:50:12;;;;;;;1.80;1.13;;;15.30;41.60;;;;;;4989127;28;20188;-73
2022/11/07 06:52:38;;;;;;;1.80;1.13;;;15.30;41.00;;;;;;4991905;28;20190;-74
2022/11/07 06:55:03;;;;;;;1.90;1.30;;;15.30;40.20;;;;;;4989408;28;20559;-74
2022/11/07 06:57:29;;;;;;;1.80;1.23;;;15.50;40.20;;;;;;4969402;28;20196;-73
2022/11/07 06:59:55;;;;;;;1.70;1.07;;;15.70;40.60;;;;;;4991081;28;20468;-73
2022/11/07 07:02:20;;;;;;;2.60;1.40;;;15.90;38.30;;;;;;4995225;28;20238;-85
2022/11/07 07:04:49;;;;;;;1.90;1.27;;;15.90;38.20;;;;;;4994170;28;20187;-84
2022/11/07 07:07:14;;;;;;;2.20;1.50;;;16.00;37.90;;;;;;4993502;28;20209;-84
2022/11/07 07:09:40;;;;;;;1.80;1.20;;;16.00;38.00;;;;;;5004464;28;20418;-85
2022/11/07 07:12:06;;;;;;;1.80;1.20;;;16.00;37.60;;;;;;5001416;28;20239;-84
2022/11/07 07:14:31;;;;;;;1.90;1.30;;;15.90;37.80;;;;;;5015275;28;20175;-83
2022/11/07 07:16:58;;;;;;;1.80;1.20;;;16.00;37.90;;;;;;5014776;28;20186;-85
2022/11/07 07:19:23;;;;;;;1.80;1.20;;;16.30;36.90;;;;;;5012054;28;20210;-77
2022/11/07 07:21:49;;;;;;;1.80;1.20;;;16.20;38.10;;;;;;4994800;28;20448;-78
2022/11/07 07:24:15;;;;;;;1.80;1.20;;;16.40;37.20;;;;;;4996629;28;20234;-77
2022/11/07 07:26:40;;;;;;;1.90;1.27;;;16.00;36.90;;;;;;4977755;28;20197;-77
2022/11/07 07:29:06;;;;;;;1.70;1.10;;;16.10;37.10;;;;;;4995260;28;20797;-77
2022/11/07 07:31:31;;;;;;;1.83;1.30;;;16.20;37.60;;;;;;4994220;28;20346;-77
2022/11/07 07:33:57;;;;;;;1.80;1.20;;;16.30;37.00;;;;;;4997031;28;20189;-78
2022/11/07 07:36:24;;;;;;;1.90;1.40;;;16.50;36.60;;;;;;4991784;28;20294;-76
2022/11/07 07:38:50;;;;;;;1.87;1.33;;;16.30;36.20;;;;;;4990888;28;20558;-77
2022/11/07 07:41:16;;;;;;;1.80;1.20;;;16.50;36.30;;;;;;5001246;28;20494;-76
2022/11/07 07:43:42;;;;;;;1.70;1.20;;;16.50;35.40;;;;;;4998181;28;20535;-76
2022/11/07 07:46:12;;;;;;;1.80;1.27;;;16.50;35.90;;;;;;4992124;28;20524;-76
2022/11/07 07:48:38;;;;;;;1.80;1.30;;;16.50;35.60;;;;;;4990534;28;20437;-76
2022/11/07 07:51:03;;;;;;;1.70;1.20;;;16.40;35.90;;;;;;4991992;28;20417;-76
2022/11/07 07:53:29;;;;;;;1.73;1.20;;;16.40;35.80;;;;;;4994464;28;20182;-76
2022/11/07 07:55:57;;;;;;;1.83;1.30;;;16.40;35.70;;;;;;4990056;28;20264;-77
2022/11/07 07:58:23;;;;;;;2.10;1.30;;;16.50;36.00;;;;;;4990880;28;20209;-77
2022/11/07 08:00:51;;;;;;;1.90;1.30;;;16.80;34.90;;;;;;4993633;28;20584;-75
2022/11/07 08:03:16;;;;;;;1.73;1.20;;;16.50;35.00;;;;;;4995390;28;20437;-81
2022/11/07 08:05:42;;;;;;;1.70;1.20;;;15.80;36.60;;;;;;4976052;28;20499;-77
2022/11/07 08:08:08;;;;;;;1.70;1.20;;;15.80;38.20;;;;;;4996044;28;20722;-78
2022/11/07 08:10:34;;;;;;;1.70;1.20;;;16.10;36.90;;;;;;4994262;28;20197;-76
2022/11/07 08:12:59;;;;;;;1.90;1.30;;;16.10;36.90;;;;;;4995517;28;20218;-77
2022/11/07 08:15:25;;;;;;;1.67;1.10;;;16.00;37.10;;;;;;4985359;28;20476;-77
2022/11/07 08:17:51;;;;;;;1.70;1.17;;;16.30;36.90;;;;;;4995937;28;20248;-78
2022/11/07 08:20:23;;;;;;;1.70;1.10;;;16.30;36.20;;;;;;4994166;28;20197;-78
2022/11/07 08:22:49;;;;;;;2.00;1.50;;;16.00;36.70;;;;;;5003750;28;20585;-78
2022/11/07 08:25:15;;;;;;;1.80;1.27;;;16.20;36.00;;;;;;4999952;28;20461;-78
2022/11/07 08:27:40;;;;;;;1.90;1.30;;;16.30;36.20;;;;;;4995780;28;20478;-78
2022/11/07 08:30:07;;;;;;;1.63;1.20;;;16.60;36.00;;;;;;5007048;28;20265;-78
2022/11/07 08:32:33;;;;;;;1.70;1.20;;;15.80;37.70;;;;;;5002378;28;20661;-77
2022/11/07 08:34:59;;;;;;;1.70;1.20;;;16.20;36.70;;;;;;4995701;28;20472;-77
2022/11/07 08:37:25;;;;;;;1.73;1.17;;;16.30;36.90;;;;;;4995945;28;20209;-78
2022/11/07 08:39:50;;;;;;;1.73;1.13;;;16.90;35.50;;;;;;4995268;28;20202;-77
2022/11/07 08:42:16;;;;;;;1.80;1.20;;;16.60;34.90;;;;;;5003371;28;20678;-78
2022/11/07 08:44:42;;;;;;;1.80;1.20;;;16.40;35.90;;;;;;4995025;28;20174;-76
2022/11/07 08:47:08;;;;;;;1.70;1.10;;;16.50;35.70;;;;;;4994826;28;20269;-77
2022/11/07 08:49:33;;;;;;;1.70;1.20;;;16.20;36.20;;;;;;4992579;28;20511;-78
2022/11/07 08:52:00;;;;;;;1.80;1.20;;;15.90;36.80;;;;;;4994385;28;20193;-78
2022/11/07 08:54:27;;;;;;;1.80;1.30;;;16.10;36.90;;;;;;5006744;28;20678;-78
2022/11/07 08:56:53;;;;;;;1.80;1.20;;;16.60;35.30;;;;;;5002437;28;20893;-78
2022/11/07 08:59:19;;;;;;;1.80;1.20;;;16.40;36.00;;;;;;4995596;28;20455;-79
2022/11/07 09:01:44;;;;;;;1.70;1.10;;;16.50;35.30;;;;;;4995183;28;20173;-77
2022/11/07 09:04:10;;;;;;;1.80;1.20;;;16.90;35.20;;;;;;5004435;28;20184;-77
2022/11/07 09:06:36;;;;;;;1.80;1.30;;;17.00;33.90;;;;;;5006782;28;20236;-78
2022/11/07 09:09:11;;;;;;;1.80;1.20;;;17.20;34.20;;;;;;4994116;28;20177;-82
2022/11/07 09:11:36;;;;;;;1.80;1.20;;;17.10;33.30;;;;;;5018555;28;20177;-81
2022/11/07 09:14:02;;;;;;;1.77;1.20;;;16.80;33.80;;;;;;5019242;28;20445;-81
2022/11/07 09:16:28;;;;;;;1.90;1.30;;;17.00;33.20;;;;;;5020598;28;20182;-81
2022/11/07 09:18:53;;;;;;;1.90;1.30;;;17.20;33.70;;;;;;5019016;28;20212;-81
2022/11/07 09:21:19;;;;;;;1.97;1.30;;;17.90;33.80;;;;;;5006678;28;20193;-80
2022/11/07 09:23:44;;;;;;;2.40;1.30;;;17.50;31.70;;;;;;4998366;28;20197;-79
2022/11/07 09:26:10;;;;;;;2.00;1.23;;;17.30;31.90;;;;;;5000549;28;20201;-80
2022/11/07 09:28:36;;;;;;;2.10;1.40;;;17.50;31.90;;;;;;5001901;28;20548;-79
2022/11/07 09:31:03;;;;;;;3.70;1.87;;;17.00;33.60;;;;;;4999369;28;20188;-81
2022/11/07 09:33:30;;;;;;;2.00;1.30;;;16.90;32.50;;;;;;4997855;28;20415;-80
2022/11/07 09:36:04;;;;;;;4.53;2.37;;;16.60;33.70;;;;;;4996886;28;20504;-80
2022/11/07 09:38:30;;;;;;;3.10;1.63;;;16.70;33.50;;;;;;4996704;28;20461;-80
2022/11/07 09:41:06;;;;;;;2.40;1.50;;;17.10;32.80;;;;;;5004945;28;20490;-78
2022/11/07 09:43:32;;;;;;;1.90;1.10;;;16.80;33.40;;;;;;4991769;28;20455;-81
2022/11/07 09:46:16;;;;;;;2.27;1.53;;;16.70;34.00;;;;;;4996433;28;20817;-79
2022/11/07 09:48:49;;;;;;;2.10;1.40;;;16.90;33.90;;;;;;4975417;28;20537;-80
2022/11/07 09:51:43;;;;;;;2.00;1.20;;;16.60;34.60;;;;;;4974788;28;20511;-80
2022/11/07 09:54:32;;;;;;;2.07;1.20;;;16.40;34.30;;;;;;4992709;28;20532;-79
2022/11/07 09:56:59;;;;;;;2.10;1.30;;;16.80;33.90;;;;;;4992930;28;20471;-79
2022/11/07 09:59:41;;;;;;;2.10;1.30;;;17.00;34.10;;;;;;4991595;28;20464;-80
2022/11/07 10:02:17;;;;;;;2.10;1.20;;;16.80;33.80;;;;;;4990253;28;20440;-79
2022/11/07 10:04:44;;;;;;;2.00;1.20;;;17.10;33.50;;;;;;4985490;28;20481;-79
2022/11/07 10:07:31;;;;;;;2.00;1.20;;;16.70;34.30;;;;;;4994204;28;20523;-80
2022/11/07 10:10:06;;;;;;;2.10;1.30;;;16.70;34.70;;;;;;4996497;28;20429;-77
2022/11/07 10:13:00;;;;;;;2.07;1.20;;;17.10;33.90;;;;;;4988001;28;20820;-79
2022/11/07 10:15:45;;;;;;;2.17;1.30;;;17.40;33.80;;;;;;5009214;28;20488;-79
2022/11/07 10:18:37;;;;;;;2.00;1.20;;;17.40;33.80;;;;;;5002896;28;21026;-78
2022/11/07 10:21:15;;;;;;;2.00;1.20;;;17.60;33.20;;;;;;5015479;28;20883;-79
2022/11/07 10:24:03;;;;;;;2.13;1.30;;;17.00;34.80;;;;;;4996140;28;20425;-79
2022/11/07 10:26:30;;;;;;;2.10;1.20;;;17.30;33.70;;;;;;5010948;28;20428;-79
2022/11/07 10:29:17;;;;;;;2.10;1.23;;;17.50;34.50;;;;;;5001452;28;20469;-79
2022/11/07 10:31:50;;;;;;;2.10;1.20;;;17.80;33.90;;;;;;4973526;28;20869;-78
2022/11/07 10:34:30;;;;;;;2.20;1.30;;;17.90;33.40;;;;;;4995034;28;20436;-79
2022/11/07 10:36:56;;;;;;;2.23;1.33;;;18.00;33.90;;;;;;4995326;28;20524;-79
2022/11/07 10:39:22;;;;;;;2.37;1.37;;;18.00;33.60;;;;;;5008538;28;20561;-79
2022/11/07 10:42:09;;;;;;;2.20;1.20;;;18.00;33.30;;;;;;5016844;28;20193;-77
2022/11/07 10:44:37;;;;;;;3.17;1.50;;;18.10;33.60;;;;;;4986875;28;20219;-78
2022/11/07 10:47:20;;;;;;;2.17;1.10;;;17.90;33.60;;;;;;4976719;28;20406;-78
2022/11/07 10:50:20;;;;;;;2.27;1.20;;;17.80;34.10;;;;;;4982682;28;20417;-80
2022/11/07 10:52:56;;;;;;;2.20;1.20;;;17.70;35.40;;;;;;4984565;28;20472;-79
2022/11/07 10:55:23;;;;;;;2.60;1.30;;;17.90;34.30;;;;;;4995832;28;20859;-78
2022/11/07 10:57:56;;;;;;;2.30;1.30;;;17.90;35.00;;;;;;4995591;28;20450;-79
2022/11/07 11:00:31;;;;;;;3.03;1.50;;;18.10;33.90;;;;;;4994811;28;20754;-79
2022/11/07 11:02:57;;;;;;;2.30;1.30;;;17.60;35.30;;;;;;4992295;28;20487;-79
2022/11/07 11:05:32;;;;;;;2.30;1.20;;;17.90;35.60;;;;;;4992927;28;20521;-80
2022/11/07 11:08:15;;;;;;;2.30;1.20;;;18.40;33.70;;;;;;4993361;28;20437;-80
2022/11/07 11:10:41;;;;;;;2.50;1.40;;;19.00;32.40;;;;;;4993026;28;21021;-79
2022/11/07 11:13:23;;;;;;;5.60;1.57;;;19.40;31.30;;;;;;4992188;28;20437;-80
2022/11/07 11:15:49;;;;;;;2.30;1.30;;;18.90;32.20;;;;;;4991871;28;20489;-80
2022/11/07 11:18:17;;;;;;;2.30;1.30;;;18.60;33.90;;;;;;4992483;28;20511;-80
2022/11/07 11:20:45;;;;;;;2.40;1.30;;;18.40;33.20;;;;;;4992737;28;20187;-81
2022/11/07 11:23:23;;;;;;;2.40;1.23;;;18.30;34.30;;;;;;4992045;28;20445;-79
2022/11/07 11:25:50;;;;;;;2.50;1.30;;;18.20;33.70;;;;;;4991941;28;20497;-79
2022/11/07 11:28:44;;;;;;;2.50;1.30;;;17.80;35.50;;;;;;4992437;28;20522;-79
2022/11/07 11:31:18;;;;;;;2.50;1.30;;;17.90;35.00;;;;;;4993463;28;21026;-79
2022/11/07 11:33:48;;;;;;;2.60;1.30;;;18.70;32.70;;;;;;4986052;28;20827;-80
2022/11/07 11:36:23;;;;;;;2.70;1.30;;;18.10;33.60;;;;;;5008611;28;20462;-79
2022/11/07 11:38:54;;;;;;;2.73;1.30;;;18.80;33.60;;;;;;4995503;28;20531;-78
2022/11/07 11:41:47;;;;;;;2.90;1.50;;;18.50;33.30;;;;;;4991068;28;20434;-82
2022/11/07 11:44:37;;;;;;;3.00;1.40;;;18.90;31.40;;;;;;4995499;28;20534;-78
2022/11/07 11:47:22;;;;;;;2.90;1.27;;;18.30;32.10;;;;;;4997457;28;20438;-79
2022/11/07 11:50:37;;;;;;;2.80;1.30;;;18.70;31.60;;;;;;4988693;28;20439;-79
2022/11/07 11:53:03;;;;;;;2.80;1.20;;;19.40;30.80;;;;;;4898683;28;20459;-79
2022/11/07 11:55:38;;;;;;;2.77;1.20;;;20.00;29.70;;;;;;5000053;28;20479;-80
2022/11/07 11:58:25;;;;;;;3.10;1.40;;;19.30;30.60;;;;;;5002105;28;20171;-78
2022/11/07 12:01:21;;;;;;;2.90;1.30;;;19.40;29.90;;;;;;4998125;28;20416;-78
2022/11/07 12:03:47;;;;;;;4.30;1.50;;;18.70;30.30;;;;;;4972092;28;20434;-79
2022/11/07 12:06:13;;;;;;;2.80;1.20;;;18.80;31.30;;;;;;5007311;28;20466;-78
2022/11/07 12:08:39;;;;;;;2.70;1.10;;;19.20;30.10;;;;;;5007361;28;20193;-78
2022/11/07 12:11:33;;;;;;;2.90;1.30;;;19.00;30.10;;;;;;5018857;28;20430;-79
2022/11/07 12:14:26;;;;;;;2.80;1.30;;;17.60;32.80;;;;;;4968818;28;20221;-78
2022/11/07 12:17:00;;;;;;;2.80;1.20;;;17.50;33.60;;;;;;5023797;28;20506;-79
2022/11/07 12:19:50;;;;;;;2.90;1.40;;;18.00;31.80;;;;;;5015085;28;20481;-79
2022/11/07 12:22:23;;;;;;;2.80;1.20;;;17.50;32.90;;;;;;5003498;28;20537;-79
2022/11/07 12:25:02;;;;;;;2.73;1.17;;;18.10;32.80;;;;;;4995072;28;20942;-81
2022/11/07 12:27:49;;;;;;;2.87;1.30;;;18.80;32.10;;;;;;4993980;28;20439;-79
2022/11/07 12:30:24;;;;;;;2.90;1.30;;;18.90;30.10;;;;;;4998170;28;20514;-78
2022/11/07 12:33:18;;;;;;;5.33;1.60;;;18.90;30.40;;;;;;4996595;28;20440;-78
2022/11/07 12:35:47;;;;;;;2.80;1.20;;;19.30;29.60;;;;;;4993270;28;20451;-76
2022/11/07 12:38:25;;;;;;;2.80;1.20;;;19.20;30.10;;;;;;4998046;28;20463;-81
2022/11/07 12:41:22;;;;;;;2.83;1.20;;;18.40;31.20;;;;;;4993851;28;20481;-80
2022/11/07 12:44:29;;;;;;;2.77;1.13;;;18.20;31.90;;;;;;5005845;28;20486;-77
2022/11/07 12:47:00;;;;;;;2.80;1.20;;;17.80;31.70;;;;;;4993797;28;20516;-83
2022/11/07 12:49:39;;;;;;;3.27;1.33;;;17.80;32.30;;;;;;4995985;28;20444;-78
2022/11/07 12:52:22;;;;;;;3.03;1.30;;;18.00;31.10;;;;;;4987798;28;20472;-76
2022/11/07 12:54:50;;;;;;;2.90;1.20;;;18.10;31.70;;;;;;4981279;28;20417;-79
2022/11/07 12:57:30;;;;;;;20.83;1.53;;;18.60;30.20;;;;;;4996198;28;20456;-78
2022/11/07 13:00:26;;;;;;;2.90;1.30;;;18.40;31.00;;;;;;4992815;28;20469;-78
2022/11/07 13:02:52;;;;;;;2.90;1.30;;;18.30;31.40;;;;;;4901087;29;20450;-78
2022/11/07 13:06:00;;;;;;;2.90;1.30;;;18.00;31.40;;;;;;4905089;29;20465;-79
2022/11/07 13:08:57;;;;;;;5.57;1.67;;;17.90;31.00;;;;;;4908764;29;20200;-79
2022/11/07 13:11:50;;;;;;;3.10;1.40;;;18.00;31.40;;;;;;4908620;29;20462;-79
2022/11/07 13:14:19;;;;;;;2.90;1.30;;;18.30;31.50;;;;;;4905824;29;20428;-78
2022/11/07 13:17:10;;;;;;;2.80;1.10;;;18.90;30.40;;;;;;4903343;29;20804;-79